Time;durP1;ratioP1;P1;durP2;ratioP2;P2;SDS_P1;SDS_P2;PMS_P1;PMS_P2;Temp;Humidity;BMP_temperature;BMP_pressure;BME280_temperature;BME280_humidity;BME280_pressure;Samples;Min_cycle;Max_cycle;Signal;HPM_P1;HPM_P2
2023/04/17 00:00:10;;;;;;;4.35;3.40;;;10.10;98.40;;;;;;4958736;29;20436;-70
2023/04/17 00:02:39;;;;;;;7.35;3.20;;;10.10;98.50;;;;;;4957241;28;20019;-69
2023/04/17 00:05:08;;;;;;;4.32;3.20;;;10.00;98.80;;;;;;4958945;28;20031;-69
2023/04/17 00:07:37;;;;;;;5.20;3.40;;;9.90;99.20;;;;;;4958463;28;20031;-69
2023/04/17 00:10:06;;;;;;;4.57;2.90;;;9.90;99.80;;;;;;4957394;28;20034;-70
2023/04/17 00:12:32;;;;;;;6.60;4.05;;;9.80;99.90;;;;;;4956092;29;20131;-70
2023/04/17 00:14:57;;;;;;;7.18;3.28;;;9.70;99.90;;;;;;4957165;28;20039;-70
2023/04/17 00:17:23;;;;;;;5.78;3.63;;;9.60;99.90;;;;;;4958500;28;20027;-70
2023/04/17 00:19:49;;;;;;;5.45;3.20;;;9.60;99.90;;;;;;4957287;28;20114;-70
2023/04/17 00:22:14;;;;;;;4.55;3.25;;;9.50;99.90;;;;;;4958315;28;20127;-70
2023/04/17 00:24:40;;;;;;;6.28;3.47;;;9.30;99.90;;;;;;4958621;28;20436;-70
2023/04/17 00:27:06;;;;;;;5.13;3.00;;;9.30;99.90;;;;;;4954264;28;20077;-70
2023/04/17 00:29:32;;;;;;;4.10;3.28;;;9.30;99.90;;;;;;4958489;28;20477;-70
2023/04/17 00:31:58;;;;;;;6.07;3.70;;;9.20;99.90;;;;;;4955615;28;20058;-70
2023/04/17 00:34:24;;;;;;;4.85;3.15;;;9.20;99.90;;;;;;4961991;28;20023;-69
2023/04/17 00:36:50;;;;;;;4.10;3.20;;;9.10;99.90;;;;;;4962172;29;20065;-69
2023/04/17 00:39:16;;;;;;;7.10;3.20;;;9.10;99.90;;;;;;4960839;28;20501;-70
2023/04/17 00:41:41;;;;;;;5.97;3.42;;;9.10;99.90;;;;;;4960709;28;20039;-69
2023/04/17 00:44:07;;;;;;;3.63;3.28;;;9.10;99.90;;;;;;4961916;28;20132;-70
2023/04/17 00:46:33;;;;;;;3.60;3.30;;;9.00;99.90;;;;;;4961697;28;20023;-70
2023/04/17 00:49:00;;;;;;;4.45;3.17;;;9.00;99.90;;;;;;4962031;28;20500;-70
2023/04/17 00:51:26;;;;;;;6.95;3.65;;;8.90;99.90;;;;;;4961985;28;20067;-69
2023/04/17 00:53:53;;;;;;;5.05;3.70;;;8.80;99.90;;;;;;4962391;28;20071;-69
2023/04/17 00:56:19;;;;;;;3.65;3.10;;;8.70;99.90;;;;;;4958522;28;20098;-70
2023/04/17 00:58:45;;;;;;;4.53;3.30;;;8.80;99.90;;;;;;4961936;28;20101;-70
2023/04/17 01:01:11;;;;;;;4.75;3.20;;;8.80;99.90;;;;;;4961443;28;20982;-70
2023/04/17 01:03:36;;;;;;;4.05;3.65;;;8.80;99.90;;;;;;4960264;28;20031;-70
2023/04/17 01:06:02;;;;;;;4.20;3.40;;;8.70;99.90;;;;;;4961639;29;20027;-70
2023/04/17 01:08:37;;;;;;;6.18;3.58;;;8.60;99.90;;;;;;4961758;28;20023;-70
2023/04/17 01:11:02;;;;;;;5.90;3.30;;;8.50;99.90;;;;;;4961649;29;20074;-70
2023/04/17 01:13:28;;;;;;;5.22;3.35;;;8.50;99.90;;;;;;4960185;28;20027;-69
2023/04/17 01:15:54;;;;;;;5.10;3.17;;;8.40;99.90;;;;;;4961303;28;20081;-70
2023/04/17 01:18:19;;;;;;;3.97;3.58;;;8.40;99.90;;;;;;4961405;28;20118;-70
2023/04/17 01:20:45;;;;;;;4.88;3.55;;;8.30;99.90;;;;;;4961290;29;20051;-70
2023/04/17 01:23:10;;;;;;;9.13;3.80;;;8.30;99.90;;;;;;4961214;28;20027;-70
2023/04/17 01:25:36;;;;;;;4.85;3.50;;;8.20;99.90;;;;;;4961297;28;20019;-70
2023/04/17 01:28:02;;;;;;;4.97;3.30;;;8.10;99.90;;;;;;4961136;28;20115;-70
2023/04/17 01:30:28;;;;;;;5.20;3.45;;;8.10;99.90;;;;;;4959728;28;20026;-70
2023/04/17 01:32:54;;;;;;;8.18;3.65;;;8.00;99.90;;;;;;4961425;28;20397;-70
2023/04/17 01:35:20;;;;;;;4.22;3.38;;;8.00;99.90;;;;;;4960987;28;20070;-70
2023/04/17 01:37:46;;;;;;;4.20;3.58;;;7.90;99.90;;;;;;4959768;28;20035;-70
2023/04/17 01:40:12;;;;;;;4.57;3.92;;;7.80;99.90;;;;;;4961124;28;20495;-70
2023/04/17 01:42:37;;;;;;;4.68;3.95;;;7.80;99.90;;;;;;4960805;28;20488;-70
2023/04/17 01:45:05;;;;;;;5.03;4.03;;;7.70;99.90;;;;;;4958326;28;20028;-70
2023/04/17 01:47:31;;;;;;;4.45;3.50;;;7.50;99.90;;;;;;4960709;28;20028;-70
2023/04/17 01:49:57;;;;;;;10.60;4.03;;;7.50;99.90;;;;;;4960793;28;20015;-70
2023/04/17 01:52:22;;;;;;;8.40;4.00;;;7.50;99.90;;;;;;4960784;28;20034;-70
2023/04/17 01:54:48;;;;;;;6.05;4.25;;;7.50;99.90;;;;;;4960760;29;20098;-70
2023/04/17 01:57:14;;;;;;;4.20;3.55;;;7.50;99.90;;;;;;4960702;28;20035;-70
2023/04/17 01:59:39;;;;;;;4.45;4.05;;;7.50;99.90;;;;;;4959244;29;20133;-70
2023/04/17 02:02:05;;;;;;;6.13;4.22;;;7.50;99.90;;;;;;4959278;28;20031;-70
2023/04/17 02:04:30;;;;;;;4.68;4.10;;;7.50;99.90;;;;;;4960509;29;20023;-70
2023/04/17 02:06:56;;;;;;;5.25;4.03;;;7.50;99.90;;;;;;4958537;28;20484;-70
2023/04/17 02:09:22;;;;;;;4.78;4.32;;;7.50;99.90;;;;;;4960358;28;20031;-70
2023/04/17 02:11:47;;;;;;;4.28;3.75;;;7.60;99.90;;;;;;4960800;28;20106;-70
2023/04/17 02:14:13;;;;;;;4.78;4.25;;;7.60;99.90;;;;;;4960102;29;20110;-70
2023/04/17 02:16:44;;;;;;;4.70;3.88;;;7.60;99.90;;;;;;4960579;28;20053;-70
2023/04/17 02:19:10;;;;;;;3.85;3.55;;;7.50;99.90;;;;;;4960135;28;20020;-70
2023/04/17 02:21:36;;;;;;;4.20;3.70;;;7.50;99.90;;;;;;4959065;28;20067;-70
2023/04/17 02:24:02;;;;;;;6.00;3.90;;;7.50;99.90;;;;;;4960247;28;20574;-70
2023/04/17 02:26:28;;;;;;;4.57;3.88;;;7.50;99.90;;;;;;4960095;28;20038;-69
2023/04/17 02:28:53;;;;;;;4.38;3.60;;;7.40;99.90;;;;;;4959946;28;20074;-69
2023/04/17 02:31:19;;;;;;;6.07;4.00;;;7.40;99.90;;;;;;4960035;28;20030;-70
2023/04/17 02:33:45;;;;;;;5.40;4.15;;;7.50;99.90;;;;;;4959971;28;20030;-70
2023/04/17 02:36:10;;;;;;;7.75;3.60;;;7.50;99.90;;;;;;4960074;28;20217;-70
2023/04/17 02:38:36;;;;;;;6.30;4.35;;;7.60;99.90;;;;;;4959999;29;20034;-70
2023/04/17 02:41:02;;;;;;;7.82;4.25;;;7.60;99.90;;;;;;4958561;28;20059;-70
2023/04/17 02:43:28;;;;;;;6.07;3.55;;;7.70;99.90;;;;;;4959610;28;20019;-70
2023/04/17 02:45:54;;;;;;;5.00;3.83;;;7.70;99.90;;;;;;4958429;28;20027;-70
2023/04/17 02:48:20;;;;;;;4.70;3.65;;;7.80;99.90;;;;;;4958313;28;20111;-69
2023/04/17 02:50:45;;;;;;;7.72;4.10;;;7.70;99.90;;;;;;4959962;28;20051;-70
2023/04/17 02:53:11;;;;;;;4.45;4.05;;;7.60;99.90;;;;;;4960000;28;20098;-70
2023/04/17 02:55:37;;;;;;;4.88;4.05;;;7.60;99.90;;;;;;4959609;28;20050;-70
2023/04/17 02:58:02;;;;;;;6.40;4.20;;;7.50;99.90;;;;;;4959580;28;20078;-70
2023/04/17 03:00:28;;;;;;;6.90;4.38;;;7.50;99.90;;;;;;4957205;28;20031;-70
2023/04/17 03:02:54;;;;;;;4.90;4.40;;;7.40;99.90;;;;;;4959410;28;20035;-70
2023/04/17 03:05:22;;;;;;;7.70;4.53;;;7.40;99.90;;;;;;4957271;28;20090;-70
2023/04/17 03:07:50;;;;;;;4.25;3.88;;;7.30;99.90;;;;;;4958785;28;20023;-70
2023/04/17 03:10:17;;;;;;;4.55;4.15;;;7.30;99.90;;;;;;4958051;28;20106;-70
2023/04/17 03:12:43;;;;;;;5.63;4.13;;;7.30;99.90;;;;;;4959089;28;20039;-70
2023/04/17 03:15:09;;;;;;;5.22;3.83;;;7.20;99.90;;;;;;4959127;28;20042;-70
2023/04/17 03:17:35;;;;;;;6.35;4.28;;;7.20;99.90;;;;;;4958894;28;20047;-69
2023/04/17 03:20:01;;;;;;;4.18;3.72;;;7.20;99.90;;;;;;4959393;29;20042;-69
2023/04/17 03:22:26;;;;;;;4.07;3.67;;;7.10;99.90;;;;;;4957566;28;20622;-70
2023/04/17 03:24:52;;;;;;;5.55;3.97;;;7.10;99.90;;;;;;4958123;29;20039;-70
2023/04/17 03:27:23;;;;;;;4.47;3.58;;;7.00;99.90;;;;;;4957668;28;20040;-69
2023/04/17 03:29:53;;;;;;;;;;;7.00;99.90;;;;;;4957050;29;20504;-69
2023/04/17 03:32:18;;;;;;;4.75;4.00;;;6.90;99.90;;;;;;4959228;28;19957;-70
2023/04/17 03:34:44;;;;;;;6.07;4.38;;;6.90;99.90;;;;;;4957696;28;20066;-70
2023/04/17 03:37:10;;;;;;;4.55;4.10;;;6.90;99.90;;;;;;4959026;28;20035;-70
2023/04/17 03:39:36;;;;;;;6.72;3.50;;;6.90;99.90;;;;;;4957680;28;20031;-70
2023/04/17 03:42:01;;;;;;;4.53;4.03;;;6.90;99.90;;;;;;4957718;28;20031;-70
2023/04/17 03:44:27;;;;;;;4.63;4.13;;;6.90;99.90;;;;;;4958600;28;20488;-70
2023/04/17 03:46:53;;;;;;;4.95;4.00;;;6.80;99.90;;;;;;4958817;29;20037;-70
2023/04/17 03:49:18;;;;;;;4.68;4.15;;;6.80;99.90;;;;;;4957675;28;20024;-70
2023/04/17 03:51:44;;;;;;;4.40;4.00;;;6.80;99.90;;;;;;4958734;28;20069;-70
2023/04/17 03:54:10;;;;;;;11.40;3.95;;;6.70;99.90;;;;;;4958879;28;20031;-70
2023/04/17 03:56:35;;;;;;;4.57;4.05;;;6.70;99.90;;;;;;4958553;28;20015;-70
2023/04/17 03:59:03;;;;;;;5.43;4.10;;;6.70;99.90;;;;;;4957388;28;20059;-70
2023/04/17 04:01:29;;;;;;;6.22;4.20;;;6.60;99.90;;;;;;4957372;28;20476;-70
2023/04/17 04:03:54;;;;;;;4.63;4.20;;;6.50;99.90;;;;;;4958665;29;20373;-70
2023/04/17 04:06:21;;;;;;;5.25;4.53;;;6.50;99.90;;;;;;4957708;29;20097;-70
2023/04/17 04:08:48;;;;;;;5.40;4.45;;;6.50;99.90;;;;;;4961460;28;20042;-70
2023/04/17 04:11:14;;;;;;;7.90;4.47;;;6.40;99.90;;;;;;4962865;29;20460;-70
2023/04/17 04:13:40;;;;;;;4.97;4.47;;;6.40;99.90;;;;;;4962532;28;20030;-71
2023/04/17 04:16:06;;;;;;;5.55;4.65;;;6.40;99.90;;;;;;4962263;29;20084;-70
2023/04/17 04:18:31;;;;;;;7.47;4.85;;;6.50;99.90;;;;;;4962314;28;20027;-70
2023/04/17 04:20:57;;;;;;;6.22;4.95;;;6.40;99.90;;;;;;4962606;29;20066;-70
2023/04/17 04:23:23;;;;;;;5.53;5.03;;;6.40;99.90;;;;;;4960874;28;20162;-70
2023/04/17 04:25:50;;;;;;;8.10;6.03;;;6.30;99.90;;;;;;4962513;28;20028;-70
2023/04/17 04:28:16;;;;;;;12.85;5.45;;;6.30;99.90;;;;;;4962198;28;20019;-70
2023/04/17 04:30:49;;;;;;;9.30;5.70;;;6.20;99.90;;;;;;4961999;28;20051;-70
2023/04/17 04:33:16;;;;;;;9.20;5.85;;;6.10;99.90;;;;;;4960771;28;20038;-70
2023/04/17 04:35:46;;;;;;;8.32;5.90;;;6.10;99.90;;;;;;4962345;28;20027;-70
2023/04/17 04:38:13;;;;;;;8.30;5.80;;;6.00;99.90;;;;;;4960971;29;20035;-70
2023/04/17 04:40:38;;;;;;;7.93;6.47;;;6.00;99.90;;;;;;4962176;28;20121;-70
2023/04/17 04:43:05;;;;;;;5.80;5.13;;;6.00;99.90;;;;;;4960659;29;20027;-70
2023/04/17 04:45:31;;;;;;;6.35;4.95;;;6.00;99.90;;;;;;4960633;28;20073;-70
2023/04/17 04:47:57;;;;;;;7.50;5.25;;;5.90;99.90;;;;;;4961701;28;20027;-70
2023/04/17 04:50:22;;;;;;;6.82;4.90;;;5.90;99.90;;;;;;4962009;28;20029;-70
2023/04/17 04:52:48;;;;;;;4.95;4.45;;;5.90;99.90;;;;;;4960448;28;20027;-70
2023/04/17 04:55:14;;;;;;;6.68;5.22;;;5.90;99.90;;;;;;4961988;28;20035;-70
2023/04/17 04:57:40;;;;;;;5.70;5.07;;;5.80;99.90;;;;;;4960248;28;20782;-70
2023/04/17 05:00:07;;;;;;;6.65;5.20;;;5.70;99.90;;;;;;4960406;29;20027;-70
2023/04/17 05:02:33;;;;;;;5.40;4.93;;;5.70;99.90;;;;;;4961684;28;20030;-70
2023/04/17 05:04:59;;;;;;;6.40;5.57;;;5.60;99.90;;;;;;4960421;28;20027;-70
2023/04/17 05:07:24;;;;;;;6.05;4.85;;;5.70;99.90;;;;;;4961474;29;20015;-70
2023/04/17 05:09:50;;;;;;;6.45;5.07;;;5.70;99.90;;;;;;4960521;29;20499;-72
2023/04/17 05:12:16;;;;;;;6.40;5.15;;;5.80;99.90;;;;;;4961351;28;20050;-71
2023/04/17 05:14:41;;;;;;;5.82;5.22;;;5.80;99.90;;;;;;4961400;28;20035;-70
2023/04/17 05:17:07;;;;;;;6.18;5.38;;;5.90;99.90;;;;;;4961357;28;20046;-70
2023/04/17 05:19:32;;;;;;;11.63;5.45;;;6.00;99.90;;;;;;4961490;28;20063;-70
2023/04/17 05:21:58;;;;;;;9.60;5.45;;;6.00;99.90;;;;;;4960020;28;20062;-70
2023/04/17 05:24:24;;;;;;;8.52;5.38;;;6.10;99.90;;;;;;4961465;28;20038;-71
2023/04/17 05:26:50;;;;;;;7.68;4.60;;;6.00;99.90;;;;;;4960110;28;20043;-70
2023/04/17 05:29:15;;;;;;;6.45;5.05;;;6.00;99.90;;;;;;4961262;29;20063;-70
2023/04/17 05:31:41;;;;;;;5.97;4.82;;;6.10;99.90;;;;;;4961017;28;20523;-70
2023/04/17 05:34:07;;;;;;;7.80;5.07;;;6.30;99.90;;;;;;4959955;28;20110;-71
2023/04/17 05:36:32;;;;;;;8.93;5.47;;;6.40;99.90;;;;;;4961299;28;20030;-71
2023/04/17 05:38:58;;;;;;;6.40;5.38;;;6.40;99.90;;;;;;4960250;28;20031;-70
2023/04/17 05:41:25;;;;;;;8.15;5.40;;;6.40;99.90;;;;;;4959669;28;20051;-70
2023/04/17 05:43:50;;;;;;;6.90;4.72;;;6.40;99.90;;;;;;4960917;29;20903;-70
2023/04/17 05:46:16;;;;;;;5.55;5.05;;;6.40;99.90;;;;;;4960809;28;20020;-70
2023/04/17 05:48:41;;;;;;;5.63;5.05;;;6.40;99.90;;;;;;4959583;28;20263;-70
2023/04/17 05:51:07;;;;;;;7.13;5.30;;;6.50;99.90;;;;;;4959382;28;20106;-70
2023/04/17 05:53:33;;;;;;;5.50;5.00;;;6.60;99.90;;;;;;4959611;29;20035;-70
2023/04/17 05:55:59;;;;;;;6.85;5.25;;;6.70;99.90;;;;;;4959306;28;20114;-70
2023/04/17 05:58:24;;;;;;;6.40;4.97;;;6.80;99.90;;;;;;4959431;28;20026;-70
2023/04/17 06:00:51;;;;;;;5.50;4.97;;;7.00;99.90;;;;;;4960360;28;20034;-70
2023/04/17 06:03:16;;;;;;;5.35;4.80;;;7.10;99.90;;;;;;4959439;28;20031;-70
2023/04/17 06:05:42;;;;;;;6.75;5.60;;;7.20;99.90;;;;;;4960364;28;20027;-70
2023/04/17 06:08:08;;;;;;;6.57;5.25;;;7.30;99.90;;;;;;4960860;29;20054;-70
2023/04/17 06:10:35;;;;;;;11.93;5.90;;;7.40;99.90;;;;;;4960234;28;20143;-70
2023/04/17 06:13:01;;;;;;;6.90;4.97;;;7.40;99.90;;;;;;4960829;28;20042;-70
2023/04/17 06:15:27;;;;;;;12.82;5.28;;;7.50;99.90;;;;;;4958697;28;20023;-70
2023/04/17 06:17:52;;;;;;;9.57;5.15;;;7.60;99.90;;;;;;4959286;28;20039;-70
2023/04/17 06:20:18;;;;;;;9.00;5.22;;;7.70;99.90;;;;;;4959941;28;20027;-71
2023/04/17 06:22:45;;;;;;;9.65;5.85;;;7.80;99.90;;;;;;4958961;28;20027;-71
2023/04/17 06:25:12;;;;;;;7.30;6.10;;;7.80;99.90;;;;;;4960127;28;20023;-70
2023/04/17 06:27:37;;;;;;;7.28;5.43;;;7.80;99.90;;;;;;4960373;28;20034;-70
2023/04/17 06:30:04;;;;;;;9.85;5.30;;;7.90;99.90;;;;;;4959465;28;20015;-70
2023/04/17 06:32:30;;;;;;;8.90;5.43;;;7.90;99.90;;;;;;4959112;28;20034;-70
2023/04/17 06:34:55;;;;;;;5.78;4.70;;;8.00;99.90;;;;;;4960146;28;20027;-70
2023/04/17 06:37:21;;;;;;;10.75;6.05;;;8.10;99.90;;;;;;4960135;29;20034;-70
2023/04/17 06:39:46;;;;;;;7.15;5.50;;;8.20;99.90;;;;;;4958523;28;20436;-70
2023/04/17 06:42:15;;;;;;;6.43;4.95;;;8.30;99.90;;;;;;4960028;28;20067;-70
2023/04/17 06:44:41;;;;;;;6.10;4.95;;;8.40;99.90;;;;;;4959500;28;20019;-70
2023/04/17 06:47:07;;;;;;;7.60;5.43;;;8.50;99.90;;;;;;4958717;28;20027;-70
2023/04/17 06:49:32;;;;;;;11.50;5.97;;;8.60;99.90;;;;;;4959495;28;20408;-69
2023/04/17 06:51:58;;;;;;;10.23;6.07;;;8.60;99.90;;;;;;4959924;28;20027;-70
2023/04/17 06:54:24;;;;;;;7.20;4.85;;;8.70;99.90;;;;;;4959495;28;20476;-70
2023/04/17 06:56:50;;;;;;;8.98;5.32;;;8.70;99.90;;;;;;4959927;29;20039;-70
2023/04/17 06:59:17;;;;;;;5.13;4.65;;;8.80;99.90;;;;;;4959249;28;20458;-69
2023/04/17 07:01:42;;;;;;;12.50;5.55;;;8.90;99.90;;;;;;4959828;28;20038;-69
2023/04/17 07:04:09;;;;;;;6.20;4.80;;;9.00;99.90;;;;;;4959154;28;20020;-69
2023/04/17 07:06:35;;;;;;;10.00;5.65;;;9.00;99.90;;;;;;4959488;29;20043;-69
2023/04/17 07:09:01;;;;;;;7.85;4.53;;;9.10;99.90;;;;;;4959352;28;20384;-69
2023/04/17 07:11:27;;;;;;;5.85;4.63;;;9.10;99.90;;;;;;4959584;28;20031;-70
2023/04/17 07:13:52;;;;;;;6.57;4.75;;;9.20;99.90;;;;;;4959139;28;20027;-70
2023/04/17 07:16:20;;;;;;;7.88;4.70;;;9.30;99.90;;;;;;4959682;28;20066;-69
2023/04/17 07:18:45;;;;;;;8.77;4.80;;;9.30;99.90;;;;;;4959292;28;20035;-70
2023/04/17 07:21:11;;;;;;;7.57;5.07;;;9.40;99.90;;;;;;4958035;28;20054;-70
2023/04/17 07:23:37;;;;;;;8.48;5.25;;;9.40;99.90;;;;;;4957691;28;20389;-70
2023/04/17 07:26:02;;;;;;;7.22;5.50;;;9.50;99.90;;;;;;4958632;29;20030;-70
2023/04/17 07:28:28;;;;;;;6.47;4.90;;;9.60;99.90;;;;;;4959053;29;20027;-70
2023/04/17 07:30:56;;;;;;;12.27;5.68;;;9.60;99.90;;;;;;4957670;29;20027;-70
2023/04/17 07:33:22;;;;;;;8.48;4.90;;;9.70;99.90;;;;;;4958810;28;20023;-70
2023/04/17 07:35:48;;;;;;;8.73;5.22;;;9.80;99.90;;;;;;4959084;28;20027;-69
2023/04/17 07:38:14;;;;;;;7.85;5.35;;;9.80;99.90;;;;;;4959011;29;20039;-69
2023/04/17 07:40:40;;;;;;;7.85;5.15;;;9.70;99.90;;;;;;4958962;28;20023;-70
2023/04/17 07:43:05;;;;;;;9.93;5.82;;;9.70;99.90;;;;;;4956654;28;20541;-70
2023/04/17 07:45:32;;;;;;;6.93;5.03;;;9.80;99.90;;;;;;4958740;28;20031;-70
2023/04/17 07:47:58;;;;;;;8.70;5.75;;;9.90;99.90;;;;;;4957402;29;20023;-69
2023/04/17 07:50:24;;;;;;;6.60;5.32;;;10.00;99.90;;;;;;4958983;28;20082;-69
2023/04/17 07:52:49;;;;;;;7.35;5.28;;;10.10;99.90;;;;;;4957494;29;20031;-69
2023/04/17 07:55:15;;;;;;;8.68;5.10;;;10.20;99.90;;;;;;4958807;28;20035;-69
2023/04/17 07:57:42;;;;;;;6.93;5.50;;;10.30;99.90;;;;;;4958787;28;20027;-69
2023/04/17 08:00:13;;;;;;;7.68;5.93;;;10.20;99.90;;;;;;4957200;29;20035;-70
2023/04/17 08:02:40;;;;;;;12.27;5.95;;;10.30;99.90;;;;;;4958681;28;20038;-69
2023/04/17 08:05:06;;;;;;;9.05;5.63;;;10.40;99.90;;;;;;4957443;28;20094;-70
2023/04/17 08:07:32;;;;;;;9.82;5.70;;;10.40;99.90;;;;;;4958578;28;20035;-69
2023/04/17 08:09:58;;;;;;;8.95;5.45;;;10.50;99.90;;;;;;4957547;28;20027;-70
2023/04/17 08:12:23;;;;;;;11.30;6.22;;;10.50;99.90;;;;;;4958502;28;20027;-70
2023/04/17 08:14:49;;;;;;;10.13;5.50;;;10.60;99.90;;;;;;4958569;28;20452;-70
2023/04/17 08:17:19;;;;;;;9.85;5.68;;;10.60;99.90;;;;;;4958679;29;20038;-70
2023/04/17 08:19:44;;;;;;;8.27;5.57;;;10.70;99.90;;;;;;4957355;29;20507;-70
2023/04/17 08:22:13;;;;;;;8.27;5.97;;;10.70;99.90;;;;;;4958152;28;20051;-70
2023/04/17 08:24:38;;;;;;;7.80;5.85;;;10.90;99.90;;;;;;4957293;28;20503;-69
2023/04/17 08:27:05;;;;;;;9.55;5.72;;;11.00;99.90;;;;;;4958279;28;20023;-70
2023/04/17 08:29:30;;;;;;;7.22;5.85;;;11.00;99.90;;;;;;4958605;28;20460;-69
2023/04/17 08:31:56;;;;;;;14.20;5.93;;;11.00;99.90;;;;;;4958327;29;20436;-69
2023/04/17 08:34:22;;;;;;;13.82;7.43;;;11.10;99.90;;;;;;4958410;29;20023;-70
2023/04/17 08:36:47;;;;;;;14.40;6.43;;;11.10;99.90;;;;;;4958363;28;20078;-70
2023/04/17 08:39:15;;;;;;;10.80;6.55;;;11.10;99.90;;;;;;4958676;29;20027;-70
2023/04/17 08:41:56;;;;;;;8.98;5.93;;;11.20;99.90;;;;;;4957267;28;20051;-69
2023/04/17 08:44:22;;;;;;;11.93;5.60;;;11.30;99.90;;;;;;4958403;29;20094;-70
2023/04/17 08:46:48;;;;;;;11.05;5.68;;;11.40;99.90;;;;;;4958296;29;20023;-69
2023/04/17 08:49:14;;;;;;;10.95;6.22;;;11.40;99.90;;;;;;4958491;29;20027;-69
2023/04/17 08:51:41;;;;;;;7.35;6.20;;;11.60;99.90;;;;;;4958187;28;20024;-70
2023/04/17 08:54:06;;;;;;;12.77;6.82;;;11.50;99.90;;;;;;4959730;28;20038;-70
2023/04/17 08:56:32;;;;;;;8.57;6.22;;;11.50;99.90;;;;;;4961792;28;20028;-70
2023/04/17 08:58:58;;;;;;;12.23;6.65;;;11.60;99.90;;;;;;4961726;28;20027;-69
2023/04/17 09:01:23;;;;;;;10.70;7.15;;;11.60;99.90;;;;;;4961590;28;20552;-69
2023/04/17 09:03:52;;;;;;;7.65;5.90;;;11.80;99.90;;;;;;4961855;28;20059;-70
2023/04/17 09:06:17;;;;;;;10.10;6.90;;;11.90;99.90;;;;;;4960323;28;20023;-70
2023/04/17 09:09:03;;;;;;;8.95;6.40;;;11.90;99.90;;;;;;4960977;29;20034;-69
2023/04/17 09:11:29;;;;;;;11.15;6.90;;;12.00;99.90;;;;;;4961549;28;20019;-70
2023/04/17 09:13:55;;;;;;;9.00;6.38;;;12.10;99.90;;;;;;4960025;28;20026;-69
2023/04/17 09:16:23;;;;;;;8.88;5.95;;;12.20;99.90;;;;;;4960425;29;20035;-69
2023/04/17 09:18:49;;;;;;;7.90;6.13;;;12.20;99.90;;;;;;4960227;29;20527;-70
2023/04/17 09:21:19;;;;;;;10.55;6.47;;;12.20;99.90;;;;;;4961337;28;20445;-70
2023/04/17 09:23:50;;;;;;;15.93;6.68;;;12.30;99.90;;;;;;4961397;29;20027;-70
2023/04/17 09:26:24;;;;;;;8.20;6.38;;;12.30;99.90;;;;;;4961353;28;20086;-69
2023/04/17 09:29:00;;;;;;;9.65;7.13;;;12.40;99.90;;;;;;4958811;28;20047;-69
2023/04/17 09:31:29;;;;;;;9.18;5.82;;;12.60;99.90;;;;;;4961110;28;20055;-69
2023/04/17 09:33:56;;;;;;;9.07;6.28;;;12.60;99.90;;;;;;4961128;28;20027;-69
2023/04/17 09:36:22;;;;;;;9.88;5.93;;;12.60;99.90;;;;;;4961098;28;20034;-69
2023/04/17 09:38:48;;;;;;;7.20;5.93;;;12.60;99.90;;;;;;4961323;28;20031;-69
2023/04/17 09:41:38;;;;;;;7.10;5.97;;;12.60;99.90;;;;;;4960886;28;20031;-70
2023/04/17 09:44:05;;;;;;;9.10;6.60;;;12.70;99.90;;;;;;4960711;28;20388;-69
2023/04/17 09:46:40;;;;;;;8.88;6.72;;;12.80;99.90;;;;;;4959649;29;20035;-69
2023/04/17 09:49:17;;;;;;;9.55;6.35;;;12.70;99.90;;;;;;4951770;28;20028;-70
2023/04/17 09:51:44;;;;;;;10.43;6.20;;;12.90;99.90;;;;;;4960763;28;20034;-69
2023/04/17 09:54:10;;;;;;;7.35;5.78;;;12.90;99.90;;;;;;4960996;29;20496;-69
2023/04/17 09:56:36;;;;;;;11.68;5.75;;;12.90;99.90;;;;;;4960905;28;20027;-69
2023/04/17 09:59:06;;;;;;;10.07;6.15;;;13.20;99.90;;;;;;4960747;28;20023;-69
2023/04/17 10:01:32;;;;;;;13.68;5.95;;;13.20;99.90;;;;;;4960718;28;20403;-69
2023/04/17 10:03:59;;;;;;;9.52;5.40;;;13.30;99.90;;;;;;4960527;28;20038;-69
2023/04/17 10:06:27;;;;;;;7.78;5.15;;;13.40;99.90;;;;;;4959654;28;20396;-70
2023/04/17 10:08:54;;;;;;;11.82;5.78;;;13.30;99.90;;;;;;4960735;28;20034;-70
2023/04/17 10:11:23;;;;;;;13.98;5.80;;;13.20;99.90;;;;;;4959418;28;20106;-70
2023/04/17 10:14:11;;;;;;;8.35;5.40;;;13.20;99.90;;;;;;4959400;28;20428;-70
2023/04/17 10:16:38;;;;;;;8.30;4.97;;;13.40;99.90;;;;;;4953247;28;20039;-70
2023/04/17 10:19:29;;;;;;;9.32;5.70;;;13.60;99.90;;;;;;4959100;29;20019;-70
2023/04/17 10:22:14;;;;;;;8.40;4.53;;;13.70;99.90;;;;;;4953572;29;20082;-69
2023/04/17 10:24:52;;;;;;;12.68;5.10;;;13.70;99.90;;;;;;4959158;28;20019;-70
2023/04/17 10:27:26;;;;;;;7.25;5.40;;;13.70;99.90;;;;;;4956164;29;20019;-70
2023/04/17 10:30:00;;;;;;;7.45;5.13;;;13.80;99.90;;;;;;4958778;29;20110;-69
2023/04/17 10:32:27;;;;;;;9.40;5.53;;;14.00;99.90;;;;;;4960040;28;20391;-70
2023/04/17 10:35:16;;;;;;;6.72;4.72;;;14.10;99.90;;;;;;4958759;28;20038;-69
2023/04/17 10:37:50;;;;;;;5.53;4.63;;;14.00;99.90;;;;;;4950898;28;20040;-70
2023/04/17 10:40:41;;;;;;;5.15;3.97;;;14.00;99.90;;;;;;4959865;28;20102;-70
2023/04/17 10:43:16;;;;;;;5.20;4.28;;;14.30;99.90;;;;;;4959898;29;20067;-70
2023/04/17 10:46:01;;;;;;;6.00;4.32;;;14.30;99.90;;;;;;4959557;28;20476;-70
2023/04/17 10:48:51;;;;;;;6.70;4.85;;;14.40;99.90;;;;;;4958902;29;20142;-70
2023/04/17 10:51:22;;;;;;;4.45;3.50;;;14.40;99.90;;;;;;4959743;28;20106;-70
2023/04/17 10:53:50;;;;;;;6.13;4.30;;;14.40;99.90;;;;;;4959832;28;20030;-69
2023/04/17 10:56:24;;;;;;;6.88;3.75;;;14.40;99.90;;;;;;4959700;28;20558;-69
2023/04/17 10:58:57;;;;;;;4.05;3.53;;;14.50;99.90;;;;;;4959605;28;20023;-70
2023/04/17 11:01:28;;;;;;;4.07;3.53;;;14.50;99.90;;;;;;4959607;29;20081;-70
2023/04/17 11:03:55;;;;;;;5.32;4.03;;;14.30;99.90;;;;;;4958096;28;20038;-70
2023/04/17 11:06:21;;;;;;;4.18;3.17;;;14.40;99.90;;;;;;4959530;28;20024;-70
2023/04/17 11:08:48;;;;;;;5.18;4.07;;;14.50;99.90;;;;;;4959500;29;20027;-71
2023/04/17 11:11:16;;;;;;;6.22;4.35;;;14.40;99.90;;;;;;4958367;29;20019;-70
2023/04/17 11:13:46;;;;;;;4.78;3.30;;;14.50;99.90;;;;;;4959100;28;20042;-70
2023/04/17 11:16:15;;;;;;;5.15;3.95;;;14.70;99.90;;;;;;4959581;28;20034;-71
2023/04/17 11:18:45;;;;;;;7.25;4.15;;;14.80;99.90;;;;;;4957804;28;20085;-70
2023/04/17 11:21:12;;;;;;;7.40;4.20;;;15.10;99.90;;;;;;4958030;28;20083;-70
2023/04/17 11:23:38;;;;;;;5.13;4.30;;;15.30;99.90;;;;;;4959119;28;20027;-71
2023/04/17 11:26:07;;;;;;;3.97;3.35;;;15.60;99.90;;;;;;4958065;28;20365;-70
2023/04/17 11:28:36;;;;;;;4.88;3.50;;;16.00;99.90;;;;;;4954940;29;20106;-71
2023/04/17 11:31:02;;;;;;;4.22;3.13;;;15.90;98.90;;;;;;4959129;28;20019;-70
2023/04/17 11:33:35;;;;;;;4.65;3.60;;;15.60;98.90;;;;;;4958980;28;20034;-71
2023/04/17 11:36:01;;;;;;;4.50;3.35;;;15.40;99.50;;;;;;4957898;28;20033;-70
2023/04/17 11:38:27;;;;;;;5.72;4.03;;;15.50;98.50;;;;;;4957957;29;20399;-70
2023/04/17 11:40:54;;;;;;;3.97;3.58;;;15.50;98.40;;;;;;4959242;28;20539;-69
2023/04/17 11:43:21;;;;;;;5.50;3.80;;;15.60;99.00;;;;;;4958707;28;20033;-70
2023/04/17 11:45:50;;;;;;;6.22;3.65;;;15.70;99.90;;;;;;4958880;28;20024;-70
2023/04/17 11:48:21;;;;;;;4.72;3.53;;;15.70;98.50;;;;;;4957659;29;20059;-71
2023/04/17 11:50:47;;;;;;;5.25;3.83;;;15.70;98.30;;;;;;4957623;28;20020;-71
2023/04/17 11:53:17;;;;;;;4.85;3.20;;;16.10;99.90;;;;;;4958961;28;20035;-71
2023/04/17 11:55:43;;;;;;;4.07;3.30;;;16.20;97.70;;;;;;4951309;29;20023;-71
2023/04/17 11:58:10;;;;;;;3.95;3.10;;;16.20;98.50;;;;;;4958657;28;20038;-70
2023/04/17 12:00:37;;;;;;;4.25;3.03;;;16.20;96.80;;;;;;4957595;28;20023;-70
2023/04/17 12:03:29;;;;;;;5.63;3.17;;;16.30;97.20;;;;;;4958753;29;20035;-71
2023/04/17 12:06:03;;;;;;;4.22;2.97;;;16.60;96.90;;;;;;4958720;28;20027;-71
2023/04/17 12:08:30;;;;;;;4.25;3.50;;;16.90;96.70;;;;;;4958865;28;20031;-71
2023/04/17 12:10:56;;;;;;;4.22;3.35;;;16.80;96.30;;;;;;4957400;28;20477;-71
2023/04/17 12:13:23;;;;;;;6.10;3.70;;;16.90;98.50;;;;;;4958651;28;20035;-71
2023/04/17 12:15:49;;;;;;;4.43;3.30;;;17.00;96.50;;;;;;4958610;28;20511;-70
2023/04/17 12:18:15;;;;;;;4.03;3.10;;;16.90;96.20;;;;;;4958607;28;20118;-70
2023/04/17 12:20:41;;;;;;;6.22;3.90;;;17.00;95.80;;;;;;4958385;28;20039;-70
2023/04/17 12:23:07;;;;;;;6.45;3.30;;;17.00;95.90;;;;;;4958635;28;20031;-71
2023/04/17 12:25:33;;;;;;;5.70;4.03;;;16.90;95.60;;;;;;4957232;28;20027;-71
2023/04/17 12:27:59;;;;;;;3.92;3.28;;;16.90;95.50;;;;;;4958750;28;20027;-72
2023/04/17 12:30:28;;;;;;;5.28;2.92;;;17.10;95.90;;;;;;4960397;28;20028;-71
2023/04/17 12:32:55;;;;;;;4.00;3.17;;;17.30;96.20;;;;;;4962428;29;20098;-71
2023/04/17 12:35:22;;;;;;;5.63;3.25;;;17.60;95.00;;;;;;4962166;28;20027;-71
2023/04/17 12:37:50;;;;;;;3.65;2.83;;;17.60;95.10;;;;;;4962453;28;20027;-71
2023/04/17 12:40:20;;;;;;;5.57;3.40;;;17.30;93.70;;;;;;4962211;28;20098;-71
2023/04/17 12:42:47;;;;;;;4.72;3.28;;;17.30;93.80;;;;;;4961023;29;20046;-72
2023/04/17 12:45:14;;;;;;;4.25;2.75;;;17.40;93.50;;;;;;4961885;28;20019;-70
2023/04/17 12:47:40;;;;;;;3.05;2.40;;;17.10;94.30;;;;;;4962289;29;20061;-71
2023/04/17 12:50:07;;;;;;;4.95;3.45;;;16.70;94.20;;;;;;4962094;28;20054;-71
2023/04/17 12:52:33;;;;;;;5.30;3.40;;;16.40;94.70;;;;;;4962114;28;20030;-71